createdAt,value
2023-02-19T00:00:08.013Z,98098.44
2023-02-19T00:02:43.504Z,98098.72
2023-02-19T00:05:12.160Z,98094.59
2023-02-19T00:07:43.252Z,98094.91
2023-02-19T00:10:11.814Z,98100.00
2023-02-19T00:12:40.326Z,98094.88
2023-02-19T00:15:09.317Z,98094.44
2023-02-19T00:17:37.798Z,98090.53
2023-02-19T00:20:07.098Z,98091.53
2023-02-19T00:22:35.697Z,98087.03
2023-02-19T00:25:06.100Z,98080.28
2023-02-19T00:27:34.839Z,98086.16
2023-02-19T00:30:03.421Z,98092.69
2023-02-19T00:32:32.318Z,98093.78
2023-02-19T00:35:02.405Z,98096.50
2023-02-19T00:37:31.024Z,98097.78
2023-02-19T00:39:59.561Z,98101.00
2023-02-19T00:42:29.670Z,98092.72
2023-02-19T00:44:58.190Z,98098.47
2023-02-19T00:47:26.858Z,98090.16
2023-02-19T00:49:55.525Z,98092.03
2023-02-19T00:52:24.067Z,98097.22
2023-02-19T00:54:52.784Z,98093.63
2023-02-19T00:57:21.276Z,98090.19
2023-02-19T00:59:51.124Z,98090.56
2023-02-19T01:02:19.672Z,98087.75
2023-02-19T01:04:48.162Z,98093.69
2023-02-19T01:07:16.727Z,98089.53
2023-02-19T01:09:46.151Z,98078.63
2023-02-19T01:12:14.633Z,98076.91
2023-02-19T01:14:43.186Z,98074.28
2023-02-19T01:17:13.373Z,98077.38
2023-02-19T01:19:41.950Z,98079.59
2023-02-19T01:22:10.492Z,98074.53
2023-02-19T01:24:38.924Z,98069.03
2023-02-19T01:27:07.465Z,98065.97
2023-02-19T01:29:36.002Z,98055.78
2023-02-19T01:32:04.741Z,98053.38
2023-02-19T01:34:34.703Z,98054.34
2023-02-19T01:37:03.562Z,98046.84
2023-02-19T01:39:32.461Z,98037.09
2023-02-19T01:42:01.237Z,98033.06
2023-02-19T01:45:25.381Z,98032.25
2023-02-19T01:48:08.878Z,98027.81
2023-02-19T01:50:47.290Z,98025.75
2023-02-19T01:53:23.564Z,98027.66
2023-02-19T01:55:58.860Z,98024.31
2023-02-19T01:58:33.059Z,98011.56
2023-02-19T02:01:05.966Z,98005.00
2023-02-19T02:03:38.789Z,97999.38
2023-02-19T02:06:20.143Z,97996.78
2023-02-19T02:09:09.146Z,98000.47
2023-02-19T02:11:39.845Z,97986.94
2023-02-19T02:14:08.595Z,97987.31
2023-02-19T02:16:53.700Z,97985.94
2023-02-19T02:19:57.555Z,97980.38
2023-02-19T02:22:33.757Z,97973.34
2023-02-19T02:25:57.101Z,97981.13
2023-02-19T02:29:03.308Z,97958.19
2023-02-19T02:31:40.568Z,97951.47
2023-02-19T02:34:15.948Z,97948.28
2023-02-19T02:36:49.878Z,97960.38
2023-02-19T02:39:24.866Z,97943.06
2023-02-19T02:42:12.425Z,97939.63
2023-02-19T02:45:02.968Z,97937.75
2023-02-19T02:47:43.037Z,97939.88
2023-02-19T02:50:24.702Z,97937.31
2023-02-19T02:53:18.184Z,97938.59
2023-02-19T02:55:53.127Z,97929.72
2023-02-19T02:58:25.457Z,97929.28
2023-02-19T03:01:19.984Z,97927.69
2023-02-19T03:03:58.753Z,97912.97
2023-02-19T03:06:34.643Z,97915.03
2023-02-19T03:09:14.479Z,97905.94
2023-02-19T03:12:09.282Z,97896.66
2023-02-19T03:15:05.071Z,97912.16
2023-02-19T03:17:58.245Z,97919.84
2023-02-19T03:20:29.900Z,97909.78
2023-02-19T03:23:03.080Z,97912.69
2023-02-19T03:25:54.161Z,97903.72
2023-02-19T03:28:54.976Z,97904.88
2023-02-19T03:31:29.174Z,97899.13
2023-02-19T03:34:06.748Z,97892.72
2023-02-19T03:36:43.997Z,97896.34
2023-02-19T03:39:18.640Z,97893.13
2023-02-19T03:41:58.956Z,97901.78
2023-02-19T03:44:39.727Z,97913.09
2023-02-19T03:47:20.021Z,97900.50
2023-02-19T03:49:56.345Z,97900.81
2023-02-19T03:52:39.754Z,97904.50
2023-02-19T03:55:17.729Z,97910.56
2023-02-19T03:57:54.837Z,97905.13
2023-02-19T04:00:31.919Z,97899.53
2023-02-19T04:03:12.249Z,97899.50
2023-02-19T04:05:48.213Z,97893.44
2023-02-19T04:08:23.285Z,97884.19
2023-02-19T04:11:01.488Z,97888.81
2023-02-19T04:13:39.251Z,97881.63
2023-02-19T04:16:13.335Z,97872.34
2023-02-19T04:18:47.183Z,97869.81
2023-02-19T04:21:17.110Z,97880.19
2023-02-19T04:23:47.758Z,97873.16
2023-02-19T04:26:19.011Z,97868.22
2023-02-19T04:28:48.531Z,97871.91
2023-02-19T04:31:17.270Z,97875.25
2023-02-19T04:33:45.800Z,97885.31
2023-02-19T04:36:14.266Z,97893.81
2023-02-19T04:38:42.746Z,97885.47
2023-02-19T04:41:12.990Z,97887.06
2023-02-19T04:43:41.667Z,97887.38
2023-02-19T04:46:10.250Z,97893.94
2023-02-19T04:48:39.054Z,97886.75
2023-02-19T04:51:09.124Z,97901.41
2023-02-19T04:53:38.846Z,97904.13
2023-02-19T04:56:09.275Z,97904.94
2023-02-19T04:58:40.450Z,97894.72
2023-02-19T05:01:10.417Z,97903.50
2023-02-19T05:03:39.401Z,97892.19
2023-02-19T05:06:11.652Z,97893.84
2023-02-19T05:08:40.594Z,97902.16
2023-02-19T05:11:12.375Z,97907.69
2023-02-19T05:13:42.680Z,97907.28
2023-02-19T05:16:16.165Z,97911.09
2023-02-19T05:18:46.917Z,97906.47
2023-02-19T05:21:16.635Z,97906.38
2023-02-19T05:23:45.496Z,97907.03
2023-02-19T05:26:18.127Z,97915.28
2023-02-19T05:28:50.784Z,97924.56
2023-02-19T05:31:20.508Z,97925.84
2023-02-19T05:33:51.357Z,97926.47
2023-02-19T05:36:22.466Z,97909.91
2023-02-19T05:38:55.160Z,97926.16
2023-02-19T05:41:26.190Z,97913.81
2023-02-19T05:43:57.669Z,97929.38
2023-02-19T05:46:29.275Z,97916.09
2023-02-19T05:48:59.124Z,97925.41
2023-02-19T05:51:28.888Z,97927.34
2023-02-19T05:53:58.816Z,97926.16
2023-02-19T05:56:33.866Z,97929.88
2023-02-19T05:59:07.929Z,97928.25
2023-02-19T06:01:37.649Z,97927.41
2023-02-19T06:04:06.795Z,97925.81
2023-02-19T06:06:35.315Z,97928.97
2023-02-19T06:09:04.534Z,97940.56
2023-02-19T06:11:33.161Z,97938.88
2023-02-19T06:14:03.076Z,97933.09
2023-02-19T06:16:33.645Z,97941.72
2023-02-19T06:19:04.851Z,97947.22
2023-02-19T06:21:33.426Z,97950.59
2023-02-19T06:24:07.797Z,97946.34
2023-02-19T06:26:36.846Z,97951.66
2023-02-19T06:29:06.730Z,97948.19
2023-02-19T06:31:35.476Z,97955.03
2023-02-19T06:34:06.093Z,97960.59
2023-02-19T06:36:34.851Z,97965.28
2023-02-19T06:39:05.084Z,97966.53
2023-02-19T06:41:34.124Z,97956.72
2023-02-19T06:44:02.931Z,97974.91
2023-02-19T06:46:33.083Z,97984.34
2023-02-19T06:49:01.717Z,97985.84
2023-02-19T06:51:31.865Z,97992.88
2023-02-19T06:54:02.299Z,97994.28
2023-02-19T06:56:33.432Z,97993.72
2023-02-19T06:59:05.426Z,97994.22
2023-02-19T07:01:36.896Z,98010.09
2023-02-19T07:04:07.452Z,98010.28
2023-02-19T07:06:37.588Z,98014.63
2023-02-19T07:09:09.487Z,98017.19
2023-02-19T07:11:40.776Z,98013.66
2023-02-19T07:14:16.229Z,98009.84
2023-02-19T07:16:47.406Z,98018.56
2023-02-19T07:19:16.949Z,98014.88
2023-02-19T07:21:45.704Z,98007.66
2023-02-19T07:24:14.326Z,98004.75
2023-02-19T07:26:42.932Z,98010.00
2023-02-19T07:29:11.791Z,98010.38
2023-02-19T07:31:40.561Z,98017.84
2023-02-19T07:34:10.543Z,98021.38
2023-02-19T07:36:39.266Z,98034.28
2023-02-19T07:39:10.052Z,98029.06
2023-02-19T07:41:38.848Z,98030.16
2023-02-19T07:44:08.145Z,98030.25
2023-02-19T07:46:36.835Z,98033.25
2023-02-19T07:49:07.225Z,98042.97
2023-02-19T07:51:39.839Z,98045.75
2023-02-19T07:54:08.467Z,98045.63
2023-02-19T07:56:37.074Z,98053.72
2023-02-19T07:59:06.272Z,98047.59
2023-02-19T08:01:52.668Z,98054.31
2023-02-19T08:04:21.399Z,98056.22
2023-02-19T08:06:51.371Z,98054.38
2023-02-19T08:09:20.044Z,98049.13
2023-02-19T08:12:06.294Z,98044.94
2023-02-19T08:14:34.902Z,98058.66
2023-02-19T08:17:03.574Z,98038.31
2023-02-19T08:19:32.171Z,98053.97
2023-02-19T08:22:02.130Z,98066.81
2023-02-19T08:24:31.276Z,98063.88
2023-02-19T08:26:59.801Z,98069.00
2023-02-19T08:29:28.624Z,98061.88
2023-02-19T08:31:57.236Z,98072.16
2023-02-19T08:34:26.029Z,98075.06
2023-02-19T08:36:54.573Z,98080.63
2023-02-19T08:39:24.693Z,98082.34
2023-02-19T08:41:53.372Z,98086.03
2023-02-19T08:44:22.232Z,98083.94
2023-02-19T08:46:50.896Z,98089.94
2023-02-19T08:49:19.560Z,98069.41
2023-02-19T08:51:48.730Z,98078.56
2023-02-19T08:54:17.516Z,98087.22
2023-02-19T08:56:47.509Z,98084.69
2023-02-19T08:59:16.280Z,98085.03
2023-02-19T09:01:44.928Z,98084.38
2023-02-19T09:04:16.223Z,98097.16
2023-02-19T09:06:44.864Z,98088.44
2023-02-19T09:09:13.520Z,98091.53
2023-02-19T09:11:42.391Z,98092.88
2023-02-19T09:14:12.475Z,98104.63
2023-02-19T09:16:41.148Z,98109.88
2023-02-19T09:19:10.048Z,98114.94
2023-02-19T09:21:38.656Z,98121.06
2023-02-19T09:24:09.773Z,98107.63
2023-02-19T09:26:39.495Z,98116.81
2023-02-19T09:29:08.177Z,98112.06
2023-02-19T09:31:38.179Z,98110.41
2023-02-19T09:34:07.872Z,98111.38
2023-02-19T09:36:36.593Z,98111.59
2023-02-19T09:39:07.757Z,98118.31
2023-02-19T09:41:45.218Z,98124.28
2023-02-19T09:44:19.673Z,98128.72
2023-02-19T09:46:53.186Z,98128.06
2023-02-19T09:49:28.458Z,98131.25
2023-02-19T09:52:03.076Z,98127.00
2023-02-19T09:54:33.405Z,98133.97
2023-02-19T09:57:04.615Z,98130.56
2023-02-19T09:59:45.665Z,98140.66
2023-02-19T10:02:21.827Z,98142.75
2023-02-19T10:04:53.204Z,98163.38
2023-02-19T10:07:25.903Z,98154.38
2023-02-19T10:10:01.055Z,98165.63
2023-02-19T10:12:34.607Z,98156.19
2023-02-19T10:15:13.793Z,98162.31
2023-02-19T10:17:44.186Z,98157.19
2023-02-19T10:20:17.323Z,98162.50
2023-02-19T10:22:47.044Z,98167.13
2023-02-19T10:25:18.023Z,98166.97
2023-02-19T10:27:46.799Z,98157.56
2023-02-19T10:30:22.700Z,98159.19
2023-02-19T10:33:05.450Z,98162.84
2023-02-19T10:35:40.232Z,98167.34
2023-02-19T10:38:09.096Z,98166.03
2023-02-19T10:40:44.569Z,98165.56
2023-02-19T10:43:31.610Z,98159.50
2023-02-19T10:46:06.042Z,98161.09
2023-02-19T10:48:41.783Z,98164.94
2023-02-19T10:51:21.769Z,98166.88
2023-02-19T10:54:03.673Z,98168.25
2023-02-19T10:56:33.722Z,98180.28
2023-02-19T10:59:25.270Z,98199.03
2023-02-19T11:01:59.753Z,98184.63
2023-02-19T11:04:35.174Z,98188.72
2023-02-19T11:07:11.798Z,98186.56
2023-02-19T11:09:45.399Z,98197.66
2023-02-19T11:12:24.347Z,98187.38
2023-02-19T11:14:53.339Z,98197.25
2023-02-19T11:17:26.383Z,98192.63
2023-02-19T11:19:59.776Z,98185.47
2023-02-19T11:22:33.596Z,98185.13
2023-02-19T11:25:08.871Z,98177.94
2023-02-19T11:27:54.314Z,98180.03
2023-02-19T11:30:37.158Z,98182.25
2023-02-19T11:33:25.473Z,98182.03
2023-02-19T11:36:22.602Z,98188.25
2023-02-19T11:38:51.945Z,98185.38
2023-02-19T11:41:44.498Z,98181.38
2023-02-19T11:44:33.092Z,98184.41
2023-02-19T11:47:43.409Z,98188.25
2023-02-19T11:50:25.516Z,98180.34
2023-02-19T11:53:16.981Z,98184.16
2023-02-19T11:56:08.458Z,98193.31
2023-02-19T11:59:04.889Z,98182.34
2023-02-19T12:02:29.225Z,98181.44
2023-02-19T12:05:33.881Z,98183.50
2023-02-19T12:08:57.785Z,98191.78
2023-02-19T12:11:53.602Z,98188.78
2023-02-19T12:15:10.085Z,98186.19
2023-02-19T12:18:03.014Z,98193.56
2023-02-19T12:20:45.621Z,98188.81
2023-02-19T12:24:03.450Z,98180.66
2023-02-19T12:26:43.969Z,98174.06
2023-02-19T12:29:39.560Z,98179.41
2023-02-19T12:32:38.471Z,98189.63
2023-02-19T12:35:48.273Z,98194.91
2023-02-19T12:38:32.484Z,98193.41
2023-02-19T12:41:31.588Z,98200.09
2023-02-19T12:44:05.417Z,98199.84
2023-02-19T12:46:39.822Z,98193.88
2023-02-19T12:49:17.190Z,98191.59
2023-02-19T12:51:50.888Z,98199.94
2023-02-19T12:54:26.282Z,98210.34
2023-02-19T12:57:03.966Z,98204.00
2023-02-19T12:59:38.647Z,98216.22
2023-02-19T13:02:19.367Z,98216.56
2023-02-19T13:05:01.243Z,98218.94
2023-02-19T13:07:39.884Z,98224.34
2023-02-19T13:10:33.438Z,98219.19
2023-02-19T13:13:13.633Z,98227.59
2023-02-19T13:15:48.520Z,98229.66
2023-02-19T13:18:23.462Z,98231.19
2023-02-19T13:20:55.386Z,98215.72
2023-02-19T13:23:47.276Z,98232.09
2023-02-19T13:26:55.021Z,98221.69
2023-02-19T13:29:51.410Z,98208.34
2023-02-19T13:32:53.447Z,98211.78
2023-02-19T13:35:53.733Z,98204.06
2023-02-19T13:38:23.293Z,98197.00
2023-02-19T13:40:59.077Z,98192.03
2023-02-19T13:43:34.797Z,98195.72
2023-02-19T13:46:09.900Z,98190.78
2023-02-19T13:48:41.913Z,98196.38
2023-02-19T13:51:51.428Z,98215.63
2023-02-19T13:54:28.906Z,98207.44
2023-02-19T13:57:29.922Z,98210.66
2023-02-19T14:00:00.149Z,98203.88
2023-02-19T14:02:35.131Z,98206.13
2023-02-19T14:05:08.479Z,98203.06
2023-02-19T14:07:54.961Z,98195.94
2023-02-19T14:11:02.050Z,98182.94
2023-02-19T14:14:06.640Z,98197.13
2023-02-19T14:17:08.441Z,98200.41
2023-02-19T14:19:56.156Z,98201.81
2023-02-19T14:23:12.037Z,98199.44
2023-02-19T14:26:04.264Z,98212.03
2023-02-19T14:28:45.392Z,98211.03
2023-02-19T14:31:25.912Z,98210.69
2023-02-19T14:33:57.937Z,98205.63
2023-02-19T14:36:51.536Z,98203.69
2023-02-19T14:39:30.979Z,98214.97
2023-02-19T14:42:03.962Z,98219.94
2023-02-19T14:44:48.372Z,98228.44
2023-02-19T14:47:23.710Z,98227.81
2023-02-19T14:49:59.240Z,98231.66
2023-02-19T14:52:39.172Z,98238.09
2023-02-19T14:55:16.394Z,98238.88
2023-02-19T14:57:49.060Z,98244.19
2023-02-19T15:00:28.133Z,98260.03
2023-02-19T15:02:59.792Z,98277.63
2023-02-19T15:05:32.874Z,98287.78
2023-02-19T15:08:08.840Z,98278.06
2023-02-19T15:10:40.153Z,98293.75
2023-02-19T15:13:17.465Z,98289.69
2023-02-19T15:15:47.798Z,98301.72
2023-02-19T15:18:22.618Z,98305.16
2023-02-19T15:20:59.013Z,98308.59
2023-02-19T15:23:32.372Z,98311.19
2023-02-19T15:26:01.204Z,98309.97
2023-02-19T15:28:35.078Z,98313.56
2023-02-19T15:31:16.853Z,98313.06
2023-02-19T15:33:53.440Z,98314.44
2023-02-19T15:36:30.550Z,98314.38
2023-02-19T15:39:03.716Z,98313.63
2023-02-19T15:41:36.136Z,98312.63
2023-02-19T15:44:30.722Z,98305.03
2023-02-19T15:47:09.270Z,98313.19
2023-02-19T15:49:47.979Z,98316.78
2023-02-19T15:52:28.193Z,98323.75
2023-02-19T15:55:08.596Z,98327.00
2023-02-19T15:57:45.204Z,98326.50
2023-02-19T16:00:22.016Z,98322.16
2023-02-19T16:02:51.391Z,98337.56
2023-02-19T16:05:28.871Z,98330.41
2023-02-19T16:08:17.614Z,98328.59
2023-02-19T16:11:02.872Z,98334.09
2023-02-19T16:13:35.151Z,98338.53
2023-02-19T16:16:17.297Z,98354.41
2023-02-19T16:18:48.904Z,98361.41
2023-02-19T16:21:22.771Z,98358.50
2023-02-19T16:23:59.264Z,98365.72
2023-02-19T16:26:29.481Z,98371.38
2023-02-19T16:28:58.251Z,98372.94
2023-02-19T16:31:27.235Z,98380.97
2023-02-19T16:34:18.129Z,98383.91
2023-02-19T16:36:49.224Z,98391.81
2023-02-19T16:39:27.003Z,98391.88
2023-02-19T16:42:24.034Z,98390.13
2023-02-19T16:44:52.725Z,98398.28
2023-02-19T16:47:33.889Z,98388.25
2023-02-19T16:50:08.815Z,98395.47
2023-02-19T16:52:39.182Z,98387.94
2023-02-19T16:55:14.795Z,98384.56
2023-02-19T16:57:45.027Z,98383.84
2023-02-19T17:00:19.386Z,98395.63
2023-02-19T17:02:49.319Z,98404.94
2023-02-19T17:05:20.149Z,98411.03
2023-02-19T17:07:49.216Z,98414.22
2023-02-19T17:10:21.097Z,98419.06
2023-02-19T17:12:51.238Z,98422.16
2023-02-19T17:15:20.881Z,98426.25
2023-02-19T17:17:49.752Z,98433.06
2023-02-19T17:20:28.605Z,98438.50
2023-02-19T17:22:57.689Z,98439.44
2023-02-19T17:25:26.431Z,98443.06
2023-02-19T17:27:57.146Z,98441.38
2023-02-19T17:30:31.403Z,98443.78
2023-02-19T17:33:00.293Z,98442.72
2023-02-19T17:35:29.144Z,98442.72
2023-02-19T17:37:57.826Z,98456.69
2023-02-19T17:40:33.437Z,98464.59
2023-02-19T17:43:03.946Z,98465.88
2023-02-19T17:45:33.068Z,98462.13
2023-02-19T17:48:02.044Z,98475.50
2023-02-19T17:50:33.201Z,98482.38
2023-02-19T17:53:01.962Z,98488.81
2023-02-19T17:55:30.580Z,98484.44
2023-02-19T17:57:59.339Z,98484.44
2023-02-19T18:00:32.246Z,98501.59
2023-02-19T18:03:01.066Z,98490.84
2023-02-19T18:05:30.038Z,98490.97
2023-02-19T18:07:59.024Z,98494.50
2023-02-19T18:10:27.730Z,98495.88
2023-02-19T18:12:56.418Z,98512.91
2023-02-19T18:15:28.778Z,98522.50
2023-02-19T18:17:58.621Z,98524.34
2023-02-19T18:20:31.209Z,98533.44
2023-02-19T18:22:59.996Z,98526.91
2023-02-19T18:25:28.652Z,98537.22
2023-02-19T18:28:00.311Z,98543.81
2023-02-19T18:30:30.821Z,98537.50
2023-02-19T18:32:59.862Z,98544.94
2023-02-19T18:35:28.507Z,98543.03
2023-02-19T18:37:57.257Z,98546.59
2023-02-19T18:40:26.938Z,98559.88
2023-02-19T18:42:56.036Z,98568.59
2023-02-19T18:45:24.783Z,98565.75
2023-02-19T18:47:54.879Z,98563.56
2023-02-19T18:50:23.515Z,98570.66
2023-02-19T18:52:53.170Z,98567.28
2023-02-19T18:55:22.050Z,98564.34
2023-02-19T18:57:50.707Z,98560.97
2023-02-19T19:00:25.528Z,98562.78
2023-02-19T19:02:59.502Z,98567.44
2023-02-19T19:05:28.667Z,98565.59
2023-02-19T19:07:59.352Z,98566.09
2023-02-19T19:10:28.994Z,98568.63
2023-02-19T19:12:58.525Z,98570.34
2023-02-19T19:15:27.543Z,98564.63
2023-02-19T19:17:57.524Z,98576.75
2023-02-19T19:20:26.267Z,98570.00
2023-02-19T19:22:55.965Z,98561.13
2023-02-19T19:25:24.699Z,98564.66
2023-02-19T19:27:57.313Z,98566.31
2023-02-19T19:30:26.119Z,98563.72
2023-02-19T19:32:55.044Z,98571.91
2023-02-19T19:35:25.031Z,98570.56
2023-02-19T19:37:53.729Z,98572.00
2023-02-19T19:40:22.621Z,98565.56
2023-02-19T19:42:53.139Z,98569.91
2023-02-19T19:45:22.301Z,98571.03
2023-02-19T19:47:51.156Z,98568.47
2023-02-19T19:50:20.281Z,98560.34
2023-02-19T19:52:50.294Z,98566.47
2023-02-19T19:55:21.442Z,98568.13
2023-02-19T19:57:50.500Z,98574.13
2023-02-19T20:00:20.458Z,98572.09
2023-02-19T20:02:49.166Z,98576.25
2023-02-19T20:05:18.031Z,98565.94
2023-02-19T20:07:46.640Z,98569.44
2023-02-19T20:10:19.995Z,98576.50
2023-02-19T20:12:49.352Z,98579.78
2023-02-19T20:15:22.712Z,98575.66
2023-02-19T20:17:51.773Z,98588.88
2023-02-19T20:20:22.640Z,98596.38
2023-02-19T20:22:52.855Z,98599.69
2023-02-19T20:25:24.947Z,98606.91
2023-02-19T20:27:54.591Z,98604.91
2023-02-19T20:30:25.127Z,98601.19
2023-02-19T20:32:54.500Z,98604.03
2023-02-19T20:35:26.487Z,98605.63
2023-02-19T20:37:55.616Z,98608.59
2023-02-19T20:40:27.746Z,98617.75
2023-02-19T20:42:56.319Z,98612.66
2023-02-19T20:45:25.132Z,98611.19
2023-02-19T20:47:53.806Z,98609.06
2023-02-19T20:50:23.531Z,98603.91
2023-02-19T20:52:53.298Z,98611.34
2023-02-19T20:55:23.666Z,98612.91
2023-02-19T20:57:53.781Z,98615.44
2023-02-19T21:00:23.373Z,98619.69
2023-02-19T21:02:52.646Z,98621.59
2023-02-19T21:05:21.742Z,98622.34
2023-02-19T21:07:50.530Z,98624.19
2023-02-19T21:10:19.560Z,98626.28
2023-02-19T21:12:50.397Z,98624.56
2023-02-19T21:15:21.067Z,98625.72
2023-02-19T21:17:49.878Z,98619.97
2023-02-19T21:20:18.941Z,98622.66
2023-02-19T21:22:47.628Z,98625.00
2023-02-19T21:25:16.386Z,98614.69
2023-02-19T21:27:45.068Z,98617.41
2023-02-19T21:30:14.351Z,98618.75
2023-02-19T21:32:44.411Z,98613.97
2023-02-19T21:35:13.216Z,98614.69
2023-02-19T21:37:44.464Z,98620.47
2023-02-19T21:40:14.556Z,98619.31
2023-02-19T21:42:43.182Z,98617.47
2023-02-19T21:45:11.852Z,98614.31
2023-02-19T21:47:40.578Z,98622.47
2023-02-19T21:50:11.463Z,98627.38
2023-02-19T21:52:40.225Z,98629.97
2023-02-19T21:55:09.313Z,98619.34
2023-02-19T21:57:37.978Z,98616.91
2023-02-19T22:00:08.830Z,98620.72
2023-02-19T22:02:37.556Z,98615.06
2023-02-19T22:05:07.048Z,98627.19
2023-02-19T22:07:37.056Z,98622.88
2023-02-19T22:10:06.793Z,98623.81
2023-02-19T22:12:35.368Z,98621.06
2023-02-19T22:15:04.078Z,98622.38
2023-02-19T22:17:32.706Z,98633.84
2023-02-19T22:20:01.471Z,98630.91
2023-02-19T22:22:30.140Z,98643.50
2023-02-19T22:25:00.234Z,98641.34
2023-02-19T22:27:30.350Z,98634.00
2023-02-19T22:29:59.072Z,98636.66
2023-02-19T22:32:27.852Z,98631.94
2023-02-19T22:34:56.605Z,98635.50
2023-02-19T22:37:25.354Z,98641.78
2023-02-19T22:39:54.240Z,98653.94
2023-02-19T22:42:25.384Z,98658.56
2023-02-19T22:44:54.304Z,98650.53
2023-02-19T22:47:22.919Z,98651.84
2023-02-19T22:49:51.679Z,98656.94
2023-02-19T22:52:20.357Z,98662.06
2023-02-19T22:54:49.255Z,98659.94
2023-02-19T22:57:17.738Z,98662.19
2023-02-19T22:59:47.674Z,98656.69
2023-02-19T23:02:16.355Z,98655.25
2023-02-19T23:04:45.174Z,98662.81
2023-02-19T23:07:13.842Z,98666.09
2023-02-19T23:09:42.690Z,98660.25
2023-02-19T23:12:12.742Z,98655.47
2023-02-19T23:14:41.462Z,98653.28
2023-02-19T23:17:11.511Z,98640.53
2023-02-19T23:19:40.119Z,98641.53
2023-02-19T23:22:08.826Z,98651.44
2023-02-19T23:24:37.369Z,98654.44
2023-02-19T23:27:05.937Z,98652.31
2023-02-19T23:29:34.623Z,98650.41
2023-02-19T23:32:03.218Z,98648.00
2023-02-19T23:34:33.295Z,98661.38
2023-02-19T23:37:02.350Z,98661.66
2023-02-19T23:39:31.109Z,98662.56
2023-02-19T23:41:59.696Z,98650.38
2023-02-19T23:44:28.636Z,98644.44
2023-02-19T23:46:57.175Z,98655.75
2023-02-19T23:49:25.875Z,98646.31
2023-02-19T23:51:55.910Z,98649.66
2023-02-19T23:54:24.837Z,98651.38
2023-02-19T23:56:53.422Z,98647.53
2023-02-19T23:59:22.057Z,98642.16
